sensor_id;sensor_type;location;lat;lon;timestamp;temperature;humidity
10354;DHT22;5223;50.924;13.338;2022-10-16T00:00:38;15.30;99.90
10354;DHT22;5223;50.924;13.338;2022-10-16T00:03:06;15.30;99.90
10354;DHT22;5223;50.924;13.338;2022-10-16T00:05:38;15.30;99.90
10354;DHT22;5223;50.924;13.338;2022-10-16T00:08:05;15.30;99.90
10354;DHT22;5223;50.924;13.338;2022-10-16T00:10:31;15.30;99.90
10354;DHT22;5223;50.924;13.338;2022-10-16T00:12:59;15.20;99.90
10354;DHT22;5223;50.924;13.338;2022-10-16T00:15:26;15.30;99.90
10354;DHT22;5223;50.924;13.338;2022-10-16T00:17:53;15.30;99.90
10354;DHT22;5223;50.924;13.338;2022-10-16T00:20:20;15.30;99.90
10354;DHT22;5223;50.924;13.338;2022-10-16T00:22:47;15.30;99.90
10354;DHT22;5223;50.924;13.338;2022-10-16T00:25:13;15.20;99.90
10354;DHT22;5223;50.924;13.338;2022-10-16T00:27:40;15.20;99.90
10354;DHT22;5223;50.924;13.338;2022-10-16T00:30:09;15.10;99.90
10354;DHT22;5223;50.924;13.338;2022-10-16T00:32:36;15.20;99.90
10354;DHT22;5223;50.924;13.338;2022-10-16T00:35:04;15.20;99.90
10354;DHT22;5223;50.924;13.338;2022-10-16T00:37:33;15.20;99.90
10354;DHT22;5223;50.924;13.338;2022-10-16T00:40:00;15.10;99.90
10354;DHT22;5223;50.924;13.338;2022-10-16T00:42:27;15.10;99.90
10354;DHT22;5223;50.924;13.338;2022-10-16T00:44:56;15.10;99.90
10354;DHT22;5223;50.924;13.338;2022-10-16T00:47:27;15.20;99.90
10354;DHT22;5223;50.924;13.338;2022-10-16T00:49:59;15.20;99.90
10354;DHT22;5223;50.924;13.338;2022-10-16T00:52:27;15.10;99.90
10354;DHT22;5223;50.924;13.338;2022-10-16T00:54:55;15.10;99.90
10354;DHT22;5223;50.924;13.338;2022-10-16T00:57:22;15.20;99.90
10354;DHT22;5223;50.924;13.338;2022-10-16T00:59:50;15.20;99.90
10354;DHT22;5223;50.924;13.338;2022-10-16T01:02:17;15.10;99.90
10354;DHT22;5223;50.924;13.338;2022-10-16T01:04:48;15.20;99.90
10354;DHT22;5223;50.924;13.338;2022-10-16T01:07:20;15.30;99.90
10354;DHT22;5223;50.924;13.338;2022-10-16T01:09:57;15.40;99.90
10354;DHT22;5223;50.924;13.338;2022-10-16T01:12:33;15.40;99.90
10354;DHT22;5223;50.924;13.338;2022-10-16T01:15:10;15.50;99.90
10354;DHT22;5223;50.924;13.338;2022-10-16T01:17:41;15.60;99.90
10354;DHT22;5223;50.924;13.338;2022-10-16T01:20:18;15.60;99.90
10354;DHT22;5223;50.924;13.338;2022-10-16T01:23:03;15.60;99.90
10354;DHT22;5223;50.924;13.338;2022-10-16T01:25:43;15.60;99.90
10354;DHT22;5223;50.924;13.338;2022-10-16T01:28:19;15.70;99.90
10354;DHT22;5223;50.924;13.338;2022-10-16T01:30:50;15.70;99.90
10354;DHT22;5223;50.924;13.338;2022-10-16T01:33:21;15.70;99.90
10354;DHT22;5223;50.924;13.338;2022-10-16T01:35:53;15.70;99.90
10354;DHT22;5223;50.924;13.338;2022-10-16T01:38:25;15.80;99.90
10354;DHT22;5223;50.924;13.338;2022-10-16T01:41:00;15.80;99.90
10354;DHT22;5223;50.924;13.338;2022-10-16T01:43:35;15.70;99.90
10354;DHT22;5223;50.924;13.338;2022-10-16T01:46:03;15.80;99.90
10354;DHT22;5223;50.924;13.338;2022-10-16T01:48:31;15.90;99.90
10354;DHT22;5223;50.924;13.338;2022-10-16T01:51:03;15.80;99.90
10354;DHT22;5223;50.924;13.338;2022-10-16T01:53:30;15.80;99.90
10354;DHT22;5223;50.924;13.338;2022-10-16T01:55:59;15.80;99.90
10354;DHT22;5223;50.924;13.338;2022-10-16T01:58:28;15.90;99.90
10354;DHT22;5223;50.924;13.338;2022-10-16T02:01:02;15.80;99.90
10354;DHT22;5223;50.924;13.338;2022-10-16T02:03:29;15.90;99.90
10354;DHT22;5223;50.924;13.338;2022-10-16T02:05:57;15.80;99.90
10354;DHT22;5223;50.924;13.338;2022-10-16T02:08:27;15.80;99.90
10354;DHT22;5223;50.924;13.338;2022-10-16T02:10:55;15.80;99.90
10354;DHT22;5223;50.924;13.338;2022-10-16T02:13:27;15.80;99.90
10354;DHT22;5223;50.924;13.338;2022-10-16T02:15:55;15.80;99.90
10354;DHT22;5223;50.924;13.338;2022-10-16T02:18:26;15.90;99.90
10354;DHT22;5223;50.924;13.338;2022-10-16T02:20:58;15.80;99.90
10354;DHT22;5223;50.924;13.338;2022-10-16T02:23:34;15.70;99.90
10354;DHT22;5223;50.924;13.338;2022-10-16T02:26:04;15.60;99.90
10354;DHT22;5223;50.924;13.338;2022-10-16T02:28:39;15.50;99.90
10354;DHT22;5223;50.924;13.338;2022-10-16T02:31:10;15.30;99.90
10354;DHT22;5223;50.924;13.338;2022-10-16T02:33:40;15.20;99.90
10354;DHT22;5223;50.924;13.338;2022-10-16T02:36:09;15.10;99.90
10354;DHT22;5223;50.924;13.338;2022-10-16T02:38:37;15.10;99.90
10354;DHT22;5223;50.924;13.338;2022-10-16T02:41:07;15.10;99.90
10354;DHT22;5223;50.924;13.338;2022-10-16T02:43:34;15.10;99.90
10354;DHT22;5223;50.924;13.338;2022-10-16T02:46:01;15.10;99.90
10354;DHT22;5223;50.924;13.338;2022-10-16T02:48:28;15.00;99.90
10354;DHT22;5223;50.924;13.338;2022-10-16T02:50:56;15.10;99.90
10354;DHT22;5223;50.924;13.338;2022-10-16T02:53:23;15.10;99.90
10354;DHT22;5223;50.924;13.338;2022-10-16T02:55:50;15.20;99.90
10354;DHT22;5223;50.924;13.338;2022-10-16T02:58:16;15.20;99.90
10354;DHT22;5223;50.924;13.338;2022-10-16T03:00:43;15.30;99.90
10354;DHT22;5223;50.924;13.338;2022-10-16T03:03:10;15.20;99.90
10354;DHT22;5223;50.924;13.338;2022-10-16T03:05:37;15.10;99.90
10354;DHT22;5223;50.924;13.338;2022-10-16T03:08:05;15.10;99.90
10354;DHT22;5223;50.924;13.338;2022-10-16T03:10:32;15.10;99.90
10354;DHT22;5223;50.924;13.338;2022-10-16T03:12:59;15.00;99.90
10354;DHT22;5223;50.924;13.338;2022-10-16T03:15:25;15.00;99.90
10354;DHT22;5223;50.924;13.338;2022-10-16T03:17:53;14.90;99.90
10354;DHT22;5223;50.924;13.338;2022-10-16T03:20:20;14.90;99.90
10354;DHT22;5223;50.924;13.338;2022-10-16T03:22:47;14.90;99.90
10354;DHT22;5223;50.924;13.338;2022-10-16T03:25:15;14.80;99.90
10354;DHT22;5223;50.924;13.338;2022-10-16T03:27:42;14.80;99.90
10354;DHT22;5223;50.924;13.338;2022-10-16T03:30:10;14.80;99.90
10354;DHT22;5223;50.924;13.338;2022-10-16T03:32:36;14.90;99.90
10354;DHT22;5223;50.924;13.338;2022-10-16T03:35:04;14.90;99.90
10354;DHT22;5223;50.924;13.338;2022-10-16T03:37:31;14.90;99.90
10354;DHT22;5223;50.924;13.338;2022-10-16T03:39:58;14.80;99.90
10354;DHT22;5223;50.924;13.338;2022-10-16T03:42:26;14.90;99.90
10354;DHT22;5223;50.924;13.338;2022-10-16T03:44:52;14.90;99.90
10354;DHT22;5223;50.924;13.338;2022-10-16T03:47:19;14.80;99.90
10354;DHT22;5223;50.924;13.338;2022-10-16T03:49:48;15.10;99.90
10354;DHT22;5223;50.924;13.338;2022-10-16T03:52:15;15.00;99.90
10354;DHT22;5223;50.924;13.338;2022-10-16T03:54:42;15.00;99.90
10354;DHT22;5223;50.924;13.338;2022-10-16T03:57:09;15.00;99.90
10354;DHT22;5223;50.924;13.338;2022-10-16T03:59:37;14.90;99.90
10354;DHT22;5223;50.924;13.338;2022-10-16T04:02:07;14.90;99.90
10354;DHT22;5223;50.924;13.338;2022-10-16T04:04:33;14.90;99.90
10354;DHT22;5223;50.924;13.338;2022-10-16T04:07:00;14.90;99.90
10354;DHT22;5223;50.924;13.338;2022-10-16T04:09:27;14.80;99.90
10354;DHT22;5223;50.924;13.338;2022-10-16T04:11:54;14.90;99.90
10354;DHT22;5223;50.924;13.338;2022-10-16T04:14:21;14.90;99.90
10354;DHT22;5223;50.924;13.338;2022-10-16T04:16:49;14.90;99.90
10354;DHT22;5223;50.924;13.338;2022-10-16T04:19:18;14.90;99.90
10354;DHT22;5223;50.924;13.338;2022-10-16T04:21:45;15.00;99.90
10354;DHT22;5223;50.924;13.338;2022-10-16T04:24:12;14.90;99.90
10354;DHT22;5223;50.924;13.338;2022-10-16T04:26:38;14.90;99.90
10354;DHT22;5223;50.924;13.338;2022-10-16T04:29:05;14.90;99.90
10354;DHT22;5223;50.924;13.338;2022-10-16T04:31:32;15.00;99.90
10354;DHT22;5223;50.924;13.338;2022-10-16T04:34:00;15.10;99.90
10354;DHT22;5223;50.924;13.338;2022-10-16T04:36:27;15.00;99.90
10354;DHT22;5223;50.924;13.338;2022-10-16T04:38:58;15.00;99.90
10354;DHT22;5223;50.924;13.338;2022-10-16T04:41:25;14.90;99.90
10354;DHT22;5223;50.924;13.338;2022-10-16T04:43:52;14.90;99.90
10354;DHT22;5223;50.924;13.338;2022-10-16T04:46:19;15.00;99.90
10354;DHT22;5223;50.924;13.338;2022-10-16T04:48:45;15.10;99.90
10354;DHT22;5223;50.924;13.338;2022-10-16T04:51:14;15.00;99.90
10354;DHT22;5223;50.924;13.338;2022-10-16T04:53:41;15.00;99.90
10354;DHT22;5223;50.924;13.338;2022-10-16T04:56:07;15.00;99.90
10354;DHT22;5223;50.924;13.338;2022-10-16T04:58:34;15.00;99.90
10354;DHT22;5223;50.924;13.338;2022-10-16T05:01:01;15.00;99.90
10354;DHT22;5223;50.924;13.338;2022-10-16T05:03:28;14.90;99.90
10354;DHT22;5223;50.924;13.338;2022-10-16T05:05:55;15.00;99.90
10354;DHT22;5223;50.924;13.338;2022-10-16T05:08:23;15.00;99.90
10354;DHT22;5223;50.924;13.338;2022-10-16T05:10:50;15.00;99.90
10354;DHT22;5223;50.924;13.338;2022-10-16T05:13:16;15.10;99.90
10354;DHT22;5223;50.924;13.338;2022-10-16T05:15:46;15.20;99.90
10354;DHT22;5223;50.924;13.338;2022-10-16T05:18:13;15.20;99.90
10354;DHT22;5223;50.924;13.338;2022-10-16T05:20:40;15.20;99.90
10354;DHT22;5223;50.924;13.338;2022-10-16T05:23:07;15.30;99.90
10354;DHT22;5223;50.924;13.338;2022-10-16T05:25:37;15.10;99.90
10354;DHT22;5223;50.924;13.338;2022-10-16T05:28:04;15.10;99.90
10354;DHT22;5223;50.924;13.338;2022-10-16T05:30:30;15.10;99.90
10354;DHT22;5223;50.924;13.338;2022-10-16T05:32:57;15.00;99.90
10354;DHT22;5223;50.924;13.338;2022-10-16T05:35:24;15.00;99.90
10354;DHT22;5223;50.924;13.338;2022-10-16T05:37:51;14.90;99.90
10354;DHT22;5223;50.924;13.338;2022-10-16T05:40:19;14.90;99.90
10354;DHT22;5223;50.924;13.338;2022-10-16T05:42:47;14.90;99.90
10354;DHT22;5223;50.924;13.338;2022-10-16T05:45:13;14.90;99.90
10354;DHT22;5223;50.924;13.338;2022-10-16T05:47:40;14.80;99.90
10354;DHT22;5223;50.924;13.338;2022-10-16T05:50:08;14.90;99.90
10354;DHT22;5223;50.924;13.338;2022-10-16T05:52:35;15.00;99.90
10354;DHT22;5223;50.924;13.338;2022-10-16T05:55:02;15.10;99.90
10354;DHT22;5223;50.924;13.338;2022-10-16T05:57:28;15.20;99.90
10354;DHT22;5223;50.924;13.338;2022-10-16T05:59:57;15.30;99.90
10354;DHT22;5223;50.924;13.338;2022-10-16T06:02:23;15.40;99.90
10354;DHT22;5223;50.924;13.338;2022-10-16T06:04:54;15.40;99.90
10354;DHT22;5223;50.924;13.338;2022-10-16T06:07:21;15.60;99.90
10354;DHT22;5223;50.924;13.338;2022-10-16T06:09:48;15.60;99.90
10354;DHT22;5223;50.924;13.338;2022-10-16T06:12:15;15.60;99.90
10354;DHT22;5223;50.924;13.338;2022-10-16T06:14:42;15.70;99.90
10354;DHT22;5223;50.924;13.338;2022-10-16T06:17:10;15.70;99.90
10354;DHT22;5223;50.924;13.338;2022-10-16T06:19:37;15.80;99.90
10354;DHT22;5223;50.924;13.338;2022-10-16T06:22:04;15.90;99.90
10354;DHT22;5223;50.924;13.338;2022-10-16T06:24:31;16.10;99.90
10354;DHT22;5223;50.924;13.338;2022-10-16T06:26:58;16.10;99.90
10354;DHT22;5223;50.924;13.338;2022-10-16T06:29:24;16.20;99.90
10354;DHT22;5223;50.924;13.338;2022-10-16T06:31:51;16.20;99.90
10354;DHT22;5223;50.924;13.338;2022-10-16T06:34:19;16.20;99.90
10354;DHT22;5223;50.924;13.338;2022-10-16T06:36:46;16.30;99.90
10354;DHT22;5223;50.924;13.338;2022-10-16T06:39:13;16.30;99.90
10354;DHT22;5223;50.924;13.338;2022-10-16T06:41:40;16.30;99.90
10354;DHT22;5223;50.924;13.338;2022-10-16T06:44:07;16.30;99.90
10354;DHT22;5223;50.924;13.338;2022-10-16T06:46:34;16.20;99.90
10354;DHT22;5223;50.924;13.338;2022-10-16T06:49:01;16.10;99.90
10354;DHT22;5223;50.924;13.338;2022-10-16T06:51:29;16.10;99.90
10354;DHT22;5223;50.924;13.338;2022-10-16T06:53:57;16.00;99.90
10354;DHT22;5223;50.924;13.338;2022-10-16T06:56:26;16.10;99.90
10354;DHT22;5223;50.924;13.338;2022-10-16T06:58:53;16.10;99.90
10354;DHT22;5223;50.924;13.338;2022-10-16T07:01:21;16.20;99.90
10354;DHT22;5223;50.924;13.338;2022-10-16T07:03:49;16.30;99.90
10354;DHT22;5223;50.924;13.338;2022-10-16T07:06:19;16.40;99.90
10354;DHT22;5223;50.924;13.338;2022-10-16T07:08:47;16.40;99.90
10354;DHT22;5223;50.924;13.338;2022-10-16T07:11:19;16.30;99.90
10354;DHT22;5223;50.924;13.338;2022-10-16T07:13:48;16.40;99.90
10354;DHT22;5223;50.924;13.338;2022-10-16T07:16:16;16.80;99.90
10354;DHT22;5223;50.924;13.338;2022-10-16T07:18:44;16.90;99.90
10354;DHT22;5223;50.924;13.338;2022-10-16T07:21:13;16.90;99.90
10354;DHT22;5223;50.924;13.338;2022-10-16T07:23:42;17.10;99.90
10354;DHT22;5223;50.924;13.338;2022-10-16T07:26:11;17.50;99.90
10354;DHT22;5223;50.924;13.338;2022-10-16T07:28:38;17.40;99.90
10354;DHT22;5223;50.924;13.338;2022-10-16T07:31:07;17.40;99.90
10354;DHT22;5223;50.924;13.338;2022-10-16T07:33:36;17.80;99.90
10354;DHT22;5223;50.924;13.338;2022-10-16T07:36:04;18.10;99.90
10354;DHT22;5223;50.924;13.338;2022-10-16T07:38:31;18.70;99.90
10354;DHT22;5223;50.924;13.338;2022-10-16T07:41:03;18.60;99.90
10354;DHT22;5223;50.924;13.338;2022-10-16T07:43:32;18.30;99.90
10354;DHT22;5223;50.924;13.338;2022-10-16T07:46:00;18.30;99.90
10354;DHT22;5223;50.924;13.338;2022-10-16T07:48:27;18.30;99.90
10354;DHT22;5223;50.924;13.338;2022-10-16T07:50:57;18.30;99.90
10354;DHT22;5223;50.924;13.338;2022-10-16T07:53:24;18.10;99.90
10354;DHT22;5223;50.924;13.338;2022-10-16T07:55:51;18.10;99.90
10354;DHT22;5223;50.924;13.338;2022-10-16T07:58:18;18.20;99.90
10354;DHT22;5223;50.924;13.338;2022-10-16T08:00:46;18.30;99.90
10354;DHT22;5223;50.924;13.338;2022-10-16T08:03:13;18.50;99.90
10354;DHT22;5223;50.924;13.338;2022-10-16T08:05:40;18.70;99.90
10354;DHT22;5223;50.924;13.338;2022-10-16T08:08:10;18.70;99.90
10354;DHT22;5223;50.924;13.338;2022-10-16T08:10:37;18.80;99.90
10354;DHT22;5223;50.924;13.338;2022-10-16T08:13:04;18.90;99.90
10354;DHT22;5223;50.924;13.338;2022-10-16T08:15:31;18.80;99.90
10354;DHT22;5223;50.924;13.338;2022-10-16T08:18:01;18.80;99.90
10354;DHT22;5223;50.924;13.338;2022-10-16T08:20:29;18.80;99.90
10354;DHT22;5223;50.924;13.338;2022-10-16T08:22:56;18.80;99.90
10354;DHT22;5223;50.924;13.338;2022-10-16T08:25:24;18.70;99.90
10354;DHT22;5223;50.924;13.338;2022-10-16T08:27:51;18.70;99.90
10354;DHT22;5223;50.924;13.338;2022-10-16T08:30:19;18.70;99.90
10354;DHT22;5223;50.924;13.338;2022-10-16T08:32:47;19.10;99.90
10354;DHT22;5223;50.924;13.338;2022-10-16T08:35:15;19.70;99.90
10354;DHT22;5223;50.924;13.338;2022-10-16T08:37:42;20.40;99.90
10354;DHT22;5223;50.924;13.338;2022-10-16T08:40:17;20.60;99.90
10354;DHT22;5223;50.924;13.338;2022-10-16T08:43:08;19.90;99.90
10354;DHT22;5223;50.924;13.338;2022-10-16T08:45:49;19.40;99.90
10354;DHT22;5223;50.924;13.338;2022-10-16T08:48:21;19.40;99.90
10354;DHT22;5223;50.924;13.338;2022-10-16T08:50:53;19.70;99.90
10354;DHT22;5223;50.924;13.338;2022-10-16T08:53:24;20.00;99.90
10354;DHT22;5223;50.924;13.338;2022-10-16T08:55:53;20.40;99.90
10354;DHT22;5223;50.924;13.338;2022-10-16T08:58:21;20.70;99.90
10354;DHT22;5223;50.924;13.338;2022-10-16T09:00:52;22.30;99.90
10354;DHT22;5223;50.924;13.338;2022-10-16T09:03:38;22.80;99.90
10354;DHT22;5223;50.924;13.338;2022-10-16T09:06:21;23.40;99.90
10354;DHT22;5223;50.924;13.338;2022-10-16T09:09:06;23.70;99.90
10354;DHT22;5223;50.924;13.338;2022-10-16T09:11:41;22.80;99.90
10354;DHT22;5223;50.924;13.338;2022-10-16T09:14:18;21.50;99.90
10354;DHT22;5223;50.924;13.338;2022-10-16T09:16:55;21.00;99.90
10354;DHT22;5223;50.924;13.338;2022-10-16T09:19:27;20.40;99.90
10354;DHT22;5223;50.924;13.338;2022-10-16T09:21:59;20.40;99.90
10354;DHT22;5223;50.924;13.338;2022-10-16T09:24:30;20.10;99.90
10354;DHT22;5223;50.924;13.338;2022-10-16T09:26:56;20.10;99.90
10354;DHT22;5223;50.924;13.338;2022-10-16T09:29:23;20.30;99.90
10354;DHT22;5223;50.924;13.338;2022-10-16T09:31:51;20.40;99.90
10354;DHT22;5223;50.924;13.338;2022-10-16T09:34:25;20.70;99.90
10354;DHT22;5223;50.924;13.338;2022-10-16T09:36:57;21.20;99.90
10354;DHT22;5223;50.924;13.338;2022-10-16T09:39:25;20.80;99.90
10354;DHT22;5223;50.924;13.338;2022-10-16T09:41:52;21.00;99.90
10354;DHT22;5223;50.924;13.338;2022-10-16T09:44:23;21.20;99.90
10354;DHT22;5223;50.924;13.338;2022-10-16T09:47:01;21.00;99.90
10354;DHT22;5223;50.924;13.338;2022-10-16T09:49:28;21.00;99.90
10354;DHT22;5223;50.924;13.338;2022-10-16T09:52:04;21.20;99.90
10354;DHT22;5223;50.924;13.338;2022-10-16T09:54:31;21.10;99.90
10354;DHT22;5223;50.924;13.338;2022-10-16T09:57:05;21.00;99.90
10354;DHT22;5223;50.924;13.338;2022-10-16T09:59:34;21.00;99.90
10354;DHT22;5223;50.924;13.338;2022-10-16T10:02:03;21.10;99.90
10354;DHT22;5223;50.924;13.338;2022-10-16T10:04:39;21.20;99.90
10354;DHT22;5223;50.924;13.338;2022-10-16T10:07:17;21.40;99.90
10354;DHT22;5223;50.924;13.338;2022-10-16T10:09:45;22.00;99.90
10354;DHT22;5223;50.924;13.338;2022-10-16T10:12:21;22.10;99.90
10354;DHT22;5223;50.924;13.338;2022-10-16T10:14:49;22.30;99.90
10354;DHT22;5223;50.924;13.338;2022-10-16T10:17:18;22.20;99.90
10354;DHT22;5223;50.924;13.338;2022-10-16T10:19:51;21.80;99.90
10354;DHT22;5223;50.924;13.338;2022-10-16T10:22:26;21.30;99.90
10354;DHT22;5223;50.924;13.338;2022-10-16T10:25:19;20.90;99.90
10354;DHT22;5223;50.924;13.338;2022-10-16T10:28:01;20.80;99.90
10354;DHT22;5223;50.924;13.338;2022-10-16T10:30:39;21.20;99.90
10354;DHT22;5223;50.924;13.338;2022-10-16T10:33:19;21.90;99.90
10354;DHT22;5223;50.924;13.338;2022-10-16T10:35:53;22.30;99.90
10354;DHT22;5223;50.924;13.338;2022-10-16T10:38:38;22.40;99.90
10354;DHT22;5223;50.924;13.338;2022-10-16T10:41:15;22.70;99.90
10354;DHT22;5223;50.924;13.338;2022-10-16T10:43:54;22.70;99.90
10354;DHT22;5223;50.924;13.338;2022-10-16T10:46:29;22.00;99.90
10354;DHT22;5223;50.924;13.338;2022-10-16T10:49:10;21.80;99.90
10354;DHT22;5223;50.924;13.338;2022-10-16T10:51:48;21.90;99.90
10354;DHT22;5223;50.924;13.338;2022-10-16T10:54:22;22.30;99.90
10354;DHT22;5223;50.924;13.338;2022-10-16T10:56:58;22.90;99.90
10354;DHT22;5223;50.924;13.338;2022-10-16T10:59:52;22.80;99.90
10354;DHT22;5223;50.924;13.338;2022-10-16T11:02:26;22.40;99.90
10354;DHT22;5223;50.924;13.338;2022-10-16T11:05:21;22.20;99.90
10354;DHT22;5223;50.924;13.338;2022-10-16T11:07:58;21.90;99.90
10354;DHT22;5223;50.924;13.338;2022-10-16T11:10:31;21.40;99.90
10354;DHT22;5223;50.924;13.338;2022-10-16T11:13:08;21.60;99.90
10354;DHT22;5223;50.924;13.338;2022-10-16T11:15:39;21.70;99.90
10354;DHT22;5223;50.924;13.338;2022-10-16T11:18:15;21.50;99.90
10354;DHT22;5223;50.924;13.338;2022-10-16T11:20:47;21.60;99.90
10354;DHT22;5223;50.924;13.338;2022-10-16T11:23:18;21.80;99.90
10354;DHT22;5223;50.924;13.338;2022-10-16T11:25:49;22.00;99.90
10354;DHT22;5223;50.924;13.338;2022-10-16T11:28:20;21.80;99.90
10354;DHT22;5223;50.924;13.338;2022-10-16T11:30:53;21.70;99.90
10354;DHT22;5223;50.924;13.338;2022-10-16T11:33:28;21.70;99.90
10354;DHT22;5223;50.924;13.338;2022-10-16T11:36:02;22.30;99.90
10354;DHT22;5223;50.924;13.338;2022-10-16T11:38:34;22.40;99.90
10354;DHT22;5223;50.924;13.338;2022-10-16T11:41:12;22.50;99.90
10354;DHT22;5223;50.924;13.338;2022-10-16T11:43:45;22.80;99.90
10354;DHT22;5223;50.924;13.338;2022-10-16T11:46:19;23.00;99.90
10354;DHT22;5223;50.924;13.338;2022-10-16T11:48:54;23.30;99.90
10354;DHT22;5223;50.924;13.338;2022-10-16T11:51:30;23.70;99.10
10354;DHT22;5223;50.924;13.338;2022-10-16T11:54:02;24.70;97.80
10354;DHT22;5223;50.924;13.338;2022-10-16T11:56:36;24.20;98.90
10354;DHT22;5223;50.924;13.338;2022-10-16T11:59:08;23.50;99.10
10354;DHT22;5223;50.924;13.338;2022-10-16T12:01:45;22.90;99.60
10354;DHT22;5223;50.924;13.338;2022-10-16T12:04:21;22.90;99.50
10354;DHT22;5223;50.924;13.338;2022-10-16T12:06:54;22.90;99.60
10354;DHT22;5223;50.924;13.338;2022-10-16T12:09:25;22.70;99.80
10354;DHT22;5223;50.924;13.338;2022-10-16T12:11:54;22.40;99.90
10354;DHT22;5223;50.924;13.338;2022-10-16T12:14:34;21.90;99.90
10354;DHT22;5223;50.924;13.338;2022-10-16T12:17:04;22.00;99.90
10354;DHT22;5223;50.924;13.338;2022-10-16T12:19:57;22.10;99.90
10354;DHT22;5223;50.924;13.338;2022-10-16T12:22:28;22.20;99.90
10354;DHT22;5223;50.924;13.338;2022-10-16T12:24:55;23.40;99.90
10354;DHT22;5223;50.924;13.338;2022-10-16T12:27:28;24.90;98.70
10354;DHT22;5223;50.924;13.338;2022-10-16T12:29:57;26.00;96.40
10354;DHT22;5223;50.924;13.338;2022-10-16T12:32:32;25.90;97.20
10354;DHT22;5223;50.924;13.338;2022-10-16T12:35:00;25.90;95.60
10354;DHT22;5223;50.924;13.338;2022-10-16T12:37:31;25.20;96.40
10354;DHT22;5223;50.924;13.338;2022-10-16T12:39:59;25.10;96.20
10354;DHT22;5223;50.924;13.338;2022-10-16T12:42:39;25.50;96.80
10354;DHT22;5223;50.924;13.338;2022-10-16T12:45:24;26.70;94.30
10354;DHT22;5223;50.924;13.338;2022-10-16T12:47:52;26.40;94.40
10354;DHT22;5223;50.924;13.338;2022-10-16T12:50:29;25.90;95.00
10354;DHT22;5223;50.924;13.338;2022-10-16T12:52:57;25.70;95.10
10354;DHT22;5223;50.924;13.338;2022-10-16T12:55:24;25.20;95.30
10354;DHT22;5223;50.924;13.338;2022-10-16T12:58:03;25.00;95.60
10354;DHT22;5223;50.924;13.338;2022-10-16T13:00:40;24.40;95.60
10354;DHT22;5223;50.924;13.338;2022-10-16T13:03:50;24.10;96.80
10354;DHT22;5223;50.924;13.338;2022-10-16T13:06:26;24.50;95.60
10354;DHT22;5223;50.924;13.338;2022-10-16T13:09:17;24.30;96.00
10354;DHT22;5223;50.924;13.338;2022-10-16T13:11:57;24.20;96.40
10354;DHT22;5223;50.924;13.338;2022-10-16T13:17:23;25.40;95.10
10354;DHT22;5223;50.924;13.338;2022-10-16T13:19:59;25.50;93.20
10354;DHT22;5223;50.924;13.338;2022-10-16T13:22:33;25.30;93.90
10354;DHT22;5223;50.924;13.338;2022-10-16T13:25:14;25.20;93.70
10354;DHT22;5223;50.924;13.338;2022-10-16T13:27:51;24.60;95.10
10354;DHT22;5223;50.924;13.338;2022-10-16T13:30:23;24.00;95.90
10354;DHT22;5223;50.924;13.338;2022-10-16T13:32:59;23.70;96.50
10354;DHT22;5223;50.924;13.338;2022-10-16T13:35:28;23.50;97.60
10354;DHT22;5223;50.924;13.338;2022-10-16T13:38:09;23.50;97.10
10354;DHT22;5223;50.924;13.338;2022-10-16T13:40:48;23.00;97.70
10354;DHT22;5223;50.924;13.338;2022-10-16T13:43:17;22.50;98.60
10354;DHT22;5223;50.924;13.338;2022-10-16T13:45:57;22.10;99.00
10354;DHT22;5223;50.924;13.338;2022-10-16T13:48:27;21.90;99.10
10354;DHT22;5223;50.924;13.338;2022-10-16T13:51:13;22.00;99.30
10354;DHT22;5223;50.924;13.338;2022-10-16T13:53:40;22.00;99.20
10354;DHT22;5223;50.924;13.338;2022-10-16T13:56:12;22.00;99.40
10354;DHT22;5223;50.924;13.338;2022-10-16T13:58:40;21.90;99.80
10354;DHT22;5223;50.924;13.338;2022-10-16T14:01:16;21.70;99.90
10354;DHT22;5223;50.924;13.338;2022-10-16T14:03:45;21.80;99.90
10354;DHT22;5223;50.924;13.338;2022-10-16T14:06:13;22.10;99.90
10354;DHT22;5223;50.924;13.338;2022-10-16T14:08:43;22.10;99.90
10354;DHT22;5223;50.924;13.338;2022-10-16T14:11:11;21.90;99.90
10354;DHT22;5223;50.924;13.338;2022-10-16T14:13:43;22.00;99.90
10354;DHT22;5223;50.924;13.338;2022-10-16T14:16:20;21.90;99.90
10354;DHT22;5223;50.924;13.338;2022-10-16T14:18:56;21.60;99.90
10354;DHT22;5223;50.924;13.338;2022-10-16T14:21:23;21.60;99.90
10354;DHT22;5223;50.924;13.338;2022-10-16T14:23:52;21.50;99.90
10354;DHT22;5223;50.924;13.338;2022-10-16T14:26:20;21.40;99.90
10354;DHT22;5223;50.924;13.338;2022-10-16T14:28:48;21.40;99.90
10354;DHT22;5223;50.924;13.338;2022-10-16T14:31:38;21.40;99.90
10354;DHT22;5223;50.924;13.338;2022-10-16T14:34:23;21.30;99.90
10354;DHT22;5223;50.924;13.338;2022-10-16T14:36:51;21.30;99.90
10354;DHT22;5223;50.924;13.338;2022-10-16T14:39:20;21.20;99.90
10354;DHT22;5223;50.924;13.338;2022-10-16T14:41:48;21.40;99.90
10354;DHT22;5223;50.924;13.338;2022-10-16T14:44:20;21.50;99.90
10354;DHT22;5223;50.924;13.338;2022-10-16T14:46:50;21.90;99.90
10354;DHT22;5223;50.924;13.338;2022-10-16T14:49:18;22.00;99.90
10354;DHT22;5223;50.924;13.338;2022-10-16T14:51:46;22.30;99.90
10354;DHT22;5223;50.924;13.338;2022-10-16T14:54:15;22.30;99.70
10354;DHT22;5223;50.924;13.338;2022-10-16T14:56:46;22.20;99.70
10354;DHT22;5223;50.924;13.338;2022-10-16T14:59:15;21.90;99.90
10354;DHT22;5223;50.924;13.338;2022-10-16T15:01:43;21.90;99.90
10354;DHT22;5223;50.924;13.338;2022-10-16T15:04:12;21.60;99.90
10354;DHT22;5223;50.924;13.338;2022-10-16T15:06:39;21.60;99.90
10354;DHT22;5223;50.924;13.338;2022-10-16T15:09:06;21.40;99.90
10354;DHT22;5223;50.924;13.338;2022-10-16T15:11:33;21.20;99.90
10354;DHT22;5223;50.924;13.338;2022-10-16T15:14:00;21.30;99.90
10354;DHT22;5223;50.924;13.338;2022-10-16T15:16:26;21.40;99.90
10354;DHT22;5223;50.924;13.338;2022-10-16T15:18:54;21.20;99.90
10354;DHT22;5223;50.924;13.338;2022-10-16T15:21:26;21.10;99.90
10354;DHT22;5223;50.924;13.338;2022-10-16T15:23:56;20.80;99.90
10354;DHT22;5223;50.924;13.338;2022-10-16T15:26:24;20.80;99.90
10354;DHT22;5223;50.924;13.338;2022-10-16T15:28:51;20.60;99.90
10354;DHT22;5223;50.924;13.338;2022-10-16T15:31:18;20.50;99.90
10354;DHT22;5223;50.924;13.338;2022-10-16T15:33:49;20.40;99.90
10354;DHT22;5223;50.924;13.338;2022-10-16T15:36:26;20.30;99.90
10354;DHT22;5223;50.924;13.338;2022-10-16T15:38:53;20.20;99.90
10354;DHT22;5223;50.924;13.338;2022-10-16T15:41:20;20.00;99.90
10354;DHT22;5223;50.924;13.338;2022-10-16T15:43:48;20.00;99.90
10354;DHT22;5223;50.924;13.338;2022-10-16T15:46:16;19.90;99.90
10354;DHT22;5223;50.924;13.338;2022-10-16T15:48:43;19.90;99.90
10354;DHT22;5223;50.924;13.338;2022-10-16T15:51:10;19.70;99.90
10354;DHT22;5223;50.924;13.338;2022-10-16T15:53:38;19.60;99.90